createdAt,value
2019-05-20T00:03:52.037Z,22.20
2019-05-20T00:08:58.035Z,21.50
2019-05-20T00:14:04.138Z,23.83
2019-05-20T00:19:10.150Z,17.70
2019-05-20T00:24:16.224Z,18.02
2019-05-20T00:29:22.300Z,15.88
2019-05-20T00:34:35.330Z,16.57
2019-05-20T00:44:41.652Z,19.37
2019-05-20T00:49:47.576Z,21.07
2019-05-20T00:54:54.097Z,20.68
2019-05-20T01:00:00.070Z,22.05
2019-05-20T01:05:06.659Z,20.88
2019-05-20T01:10:13.513Z,20.83
2019-05-20T01:15:20.136Z,24.50
2019-05-20T01:20:26.314Z,21.55
2019-05-20T01:25:32.384Z,19.75
2019-05-20T01:30:38.277Z,24.87
2019-05-20T01:35:44.117Z,18.92
2019-05-20T01:40:50.092Z,21.07
2019-05-20T01:45:56.062Z,18.92
2019-05-20T01:51:02.033Z,22.70
2019-05-20T01:56:08.107Z,20.12
2019-05-20T02:01:13.977Z,15.35
2019-05-20T02:06:20.055Z,17.67
2019-05-20T02:11:26.123Z,16.95
2019-05-20T02:16:32.191Z,22.75
2019-05-20T02:21:38.273Z,21.17
2019-05-20T02:26:44.340Z,25.97
2019-05-20T02:31:50.412Z,21.82
2019-05-20T02:36:56.391Z,22.40
2019-05-20T02:42:02.458Z,22.27
2019-05-20T02:47:08.328Z,22.52
2019-05-20T02:52:14.297Z,23.57
2019-05-20T02:57:20.987Z,22.58
2019-05-20T03:02:26.957Z,19.48
2019-05-20T03:07:32.938Z,22.07
2019-05-20T03:12:38.900Z,22.45
2019-05-20T03:17:44.773Z,23.25
2019-05-20T03:22:50.737Z,22.70
2019-05-20T03:27:57.631Z,22.95
2019-05-20T03:33:03.819Z,20.08
2019-05-20T03:38:10.598Z,24.25
2019-05-20T03:43:16.669Z,22.25
2019-05-20T03:48:22.641Z,20.00
2019-05-20T03:53:28.720Z,20.12
2019-05-20T03:58:34.992Z,18.60
2019-05-20T04:03:40.965Z,17.23
2019-05-20T04:08:47.043Z,18.57
2019-05-20T04:13:53.010Z,16.10
2019-05-20T04:18:58.974Z,16.32
2019-05-20T04:24:05.551Z,15.72
2019-05-20T04:29:12.151Z,10.23
2019-05-20T04:34:18.130Z,13.65
2019-05-20T04:39:24.192Z,14.70
2019-05-20T04:44:30.181Z,11.40
2019-05-20T04:49:36.138Z,10.55
2019-05-20T04:54:42.207Z,16.45
2019-05-20T04:59:48.283Z,11.30
2019-05-20T05:04:54.265Z,11.50
2019-05-20T05:10:00.434Z,10.60
2019-05-20T05:15:11.454Z,14.05
2019-05-20T05:20:18.769Z,13.45
2019-05-20T05:25:26.529Z,19.92
2019-05-20T05:30:32.640Z,10.80
2019-05-20T05:35:52.273Z,11.78
2019-05-20T05:45:51.592Z,14.05
2019-05-20T05:50:57.717Z,13.32
2019-05-20T05:56:03.892Z,11.48
2019-05-20T06:01:09.861Z,12.35
2019-05-20T06:06:15.834Z,16.80
2019-05-20T06:11:21.836Z,12.30
2019-05-20T06:16:36.656Z,15.08
2019-05-20T06:21:35.590Z,11.33
2019-05-20T06:26:41.665Z,11.88
2019-05-20T06:31:47.936Z,10.23
2019-05-20T06:36:55.913Z,11.63
2019-05-20T06:42:01.930Z,14.30
2019-05-20T06:47:08.000Z,14.63
2019-05-20T06:52:14.083Z,14.35
2019-05-20T06:57:20.119Z,18.67
2019-05-20T07:02:26.848Z,14.30
2019-05-20T07:07:32.913Z,13.57
2019-05-20T07:12:41.587Z,13.78
2019-05-20T07:22:55.742Z,15.38
2019-05-20T07:27:59.870Z,14.68
2019-05-20T07:33:06.019Z,12.75
2019-05-20T07:38:11.763Z,10.20
2019-05-20T07:43:17.883Z,12.70
2019-05-20T07:48:24.726Z,11.00
2019-05-20T07:53:32.489Z,12.40
2019-05-20T08:03:44.741Z,21.70
2019-05-20T08:08:51.146Z,10.65
2019-05-20T08:13:57.084Z,15.15
2019-05-20T08:19:03.160Z,14.93
2019-05-20T08:24:09.365Z,22.87
2019-05-20T08:29:17.048Z,12.53
2019-05-20T08:34:23.344Z,11.78
2019-05-20T08:39:30.839Z,12.13
2019-05-20T08:44:36.868Z,10.65
2019-05-20T08:49:43.483Z,11.83
2019-05-20T08:54:50.184Z,14.38
2019-05-20T08:59:56.148Z,10.72
2019-05-20T09:05:02.147Z,10.90
2019-05-20T09:10:08.827Z,12.05
2019-05-20T09:15:15.657Z,12.40
2019-05-20T09:20:22.119Z,10.47
2019-05-20T09:25:33.284Z,9.03
2019-05-20T09:30:39.520Z,12.10
2019-05-20T09:35:47.181Z,10.85
2019-05-20T09:40:53.441Z,16.02
2019-05-20T09:46:07.706Z,7.83
2019-05-20T09:51:07.334Z,9.20
2019-05-20T09:56:13.504Z,10.50
2019-05-20T10:01:19.519Z,12.53
2019-05-20T10:06:25.575Z,12.33
2019-05-20T10:11:31.765Z,13.68
2019-05-20T10:16:37.701Z,15.88
2019-05-20T10:21:43.954Z,11.63
2019-05-20T10:26:49.947Z,18.30
2019-05-20T10:31:56.124Z,8.00
2019-05-20T10:37:03.532Z,10.93
2019-05-20T10:42:09.500Z,12.18
2019-05-20T10:47:15.588Z,14.78
2019-05-20T10:52:22.974Z,9.18
2019-05-20T10:57:28.961Z,8.93
2019-05-20T11:02:35.038Z,11.10
2019-05-20T11:07:41.358Z,11.90
2019-05-20T11:12:47.489Z,51.05
2019-05-20T11:17:53.647Z,7.40
2019-05-20T11:23:01.171Z,10.60
2019-05-20T11:28:11.678Z,12.73
2019-05-20T11:33:15.753Z,10.93
2019-05-20T11:38:22.049Z,16.12
2019-05-20T11:43:28.439Z,12.85
2019-05-20T11:48:34.892Z,9.48
2019-05-20T11:53:40.969Z,8.70
2019-05-20T11:58:47.075Z,11.65
2019-05-20T12:03:53.213Z,7.78
2019-05-20T12:08:59.505Z,11.43
2019-05-20T12:14:06.184Z,9.95
2019-05-20T12:19:12.163Z,20.20
2019-05-20T12:24:18.231Z,10.05
2019-05-20T12:29:24.305Z,10.30
2019-05-20T12:34:30.373Z,13.83
2019-05-20T12:39:36.374Z,11.68
2019-05-20T12:44:42.835Z,11.70
2019-05-20T12:49:49.012Z,10.72
2019-05-20T12:55:07.050Z,13.28
2019-05-20T13:00:03.325Z,10.93
2019-05-20T13:05:10.408Z,11.05
2019-05-20T13:10:29.178Z,7.65
2019-05-20T13:15:25.318Z,15.25
2019-05-20T13:20:31.543Z,11.85
2019-05-20T13:25:37.763Z,12.78
2019-05-20T13:30:43.943Z,13.18
2019-05-20T13:35:50.226Z,14.00
2019-05-20T13:40:56.289Z,14.33
2019-05-20T13:46:02.466Z,18.02
2019-05-20T13:51:08.742Z,12.25
2019-05-20T13:56:15.017Z,12.35
2019-05-20T14:01:21.198Z,18.05
2019-05-20T14:06:28.918Z,13.55
2019-05-20T14:16:41.373Z,9.98
2019-05-20T14:21:47.781Z,15.35
2019-05-20T14:26:53.942Z,14.98
2019-05-20T14:31:59.989Z,7.65
2019-05-20T14:37:06.303Z,9.85
2019-05-20T14:42:12.625Z,13.85
2019-05-20T14:47:18.845Z,9.48
2019-05-20T14:52:25.332Z,10.93
2019-05-20T14:57:31.592Z,14.03
2019-05-20T15:02:37.879Z,9.60
2019-05-20T15:07:44.262Z,15.15
2019-05-20T15:12:51.091Z,10.98
2019-05-20T15:17:57.518Z,10.90
2019-05-20T15:23:03.700Z,10.00
2019-05-20T15:28:10.181Z,12.80
2019-05-20T15:33:16.350Z,10.30
2019-05-20T15:38:22.422Z,10.60
2019-05-20T15:43:28.852Z,10.38
2019-05-20T15:48:34.830Z,11.48
2019-05-20T15:53:40.931Z,12.25
2019-05-20T15:58:47.223Z,13.25
2019-05-20T16:03:53.855Z,11.12
2019-05-20T16:09:00.191Z,11.43
2019-05-20T16:14:06.844Z,17.33
2019-05-20T16:19:12.955Z,11.48
2019-05-20T16:24:19.046Z,24.77
2019-05-20T16:29:25.325Z,59.05
2019-05-20T16:34:31.605Z,22.40
2019-05-20T16:39:37.762Z,59.88
2019-05-20T16:44:44.078Z,83.45
2019-05-20T16:49:50.144Z,81.05
2019-05-20T16:54:56.160Z,88.45
2019-05-20T17:00:02.261Z,170.80
2019-05-20T17:10:16.365Z,31.48
2019-05-20T17:20:29.020Z,49.18
2019-05-20T17:25:35.139Z,47.67
2019-05-20T17:30:45.548Z,48.05
2019-05-20T17:35:49.290Z,52.43
2019-05-20T17:40:55.704Z,34.08
2019-05-20T17:46:01.731Z,60.48
2019-05-20T17:51:08.470Z,24.25
2019-05-20T17:56:14.796Z,28.20
2019-05-20T18:01:20.869Z,27.65
2019-05-20T18:06:26.747Z,21.12
2019-05-20T18:11:32.814Z,18.00
2019-05-20T18:16:39.176Z,18.52
2019-05-20T18:21:45.314Z,22.80
2019-05-20T18:26:52.492Z,16.77
2019-05-20T18:31:58.747Z,21.48
2019-05-20T18:37:04.786Z,22.95
2019-05-20T18:42:11.500Z,18.62
2019-05-20T18:47:17.702Z,18.87
2019-05-20T18:52:23.915Z,17.85
2019-05-20T18:57:30.042Z,17.30
2019-05-20T19:02:36.209Z,14.68
2019-05-20T19:07:42.732Z,13.65
2019-05-20T19:12:48.999Z,15.75
2019-05-20T19:17:55.447Z,23.18
2019-05-20T19:23:01.598Z,16.25
2019-05-20T19:28:07.870Z,17.70
2019-05-20T19:33:14.917Z,17.57
2019-05-20T19:38:21.087Z,14.17
2019-05-20T19:43:27.045Z,16.87
2019-05-20T19:48:33.053Z,12.70
2019-05-20T19:53:39.102Z,16.25
2019-05-20T19:58:45.415Z,11.85
2019-05-20T20:03:51.442Z,13.75
2019-05-20T20:08:57.612Z,16.20
2019-05-20T20:14:03.788Z,15.30
2019-05-20T20:19:10.068Z,12.88
2019-05-20T20:24:16.143Z,13.15
2019-05-20T20:29:22.226Z,14.55
2019-05-20T20:34:30.700Z,15.30
2019-05-20T20:39:36.719Z,13.80
2019-05-20T20:44:42.788Z,14.15
2019-05-20T20:49:48.760Z,14.80
2019-05-20T20:54:54.937Z,17.15
2019-05-20T21:00:00.699Z,14.68
2019-05-20T21:05:07.797Z,18.67
2019-05-20T21:10:14.292Z,13.58
2019-05-20T21:15:20.353Z,19.50
2019-05-20T21:20:26.426Z,19.82
2019-05-20T21:25:32.398Z,19.10
2019-05-20T21:30:38.369Z,19.42
2019-05-20T21:35:45.528Z,17.48
2019-05-20T21:40:51.684Z,20.27
2019-05-20T21:45:57.614Z,18.82
2019-05-20T21:51:03.684Z,17.92
2019-05-20T21:56:09.557Z,19.95
2019-05-20T22:01:15.557Z,19.20
2019-05-20T22:06:21.700Z,21.02
2019-05-20T22:11:27.670Z,20.57
2019-05-20T22:16:33.848Z,19.55
2019-05-20T22:21:41.967Z,20.95
2019-05-20T22:26:47.939Z,20.82
2019-05-20T22:31:53.905Z,20.70
2019-05-20T22:36:59.881Z,18.92
2019-05-20T22:42:05.954Z,16.42
2019-05-20T22:47:12.034Z,14.10
2019-05-20T22:52:18.034Z,13.28
2019-05-20T22:57:23.980Z,13.65
2019-05-20T23:02:30.046Z,14.18
2019-05-20T23:07:35.950Z,17.92
2019-05-20T23:12:41.904Z,16.17
2019-05-20T23:17:47.865Z,18.12
2019-05-20T23:22:53.920Z,12.03
2019-05-20T23:27:59.828Z,12.40
2019-05-20T23:33:05.769Z,13.20
2019-05-20T23:38:11.746Z,13.25
2019-05-20T23:43:17.811Z,9.93
2019-05-20T23:48:23.876Z,12.37
2019-05-20T23:53:29.954Z,11.28
2019-05-20T23:58:35.822Z,9.63
